Time;durP1;ratioP1;P1;durP2;ratioP2;P2;SDS_P1;SDS_P2;PMS_P1;PMS_P2;Temp;Humidity;BMP_temperature;BMP_pressure;BME280_temperature;BME280_humidity;BME280_pressure;Samples;Min_cycle;Max_cycle;Signal;HPM_P1;HPM_P2
2022/06/18 00:02:10;;;;;;;4.45;2.90;;;;;;;;;;5026231;28;20029;-59
2022/06/18 00:04:55;;;;;;;5.45;2.90;;;;;;;;;;5044045;28;20434;-60
2022/06/18 00:07:43;;;;;;;6.63;2.60;;;;;;;;;;5040628;28;20041;-67
2022/06/18 00:10:30;;;;;;;4.50;2.58;;;;;;;;;;5028401;28;20061;-66
2022/06/18 00:16:21;;;;;;;3.15;2.55;;;;;;;;;;5046376;28;20064;-66
2022/06/18 00:19:06;;;;;;;4.07;2.58;;;;;;;;;;5048059;28;20488;-66
2022/06/18 00:21:53;;;;;;;3.70;2.25;;;;;;;;;;5042997;28;20485;-67
2022/06/18 00:24:38;;;;;;;5.05;2.70;;;;;;;;;;5034175;28;20488;-66
2022/06/18 00:27:24;;;;;;;9.32;2.50;;;;;;;;;;5034708;28;20040;-72
2022/06/18 00:30:10;;;;;;;5.85;2.75;;;;;;;;;;5034600;28;20026;-66
2022/06/18 00:32:56;;;;;;;5.95;2.70;;;;;;;;;;5037127;28;20108;-66
2022/06/18 00:35:43;;;;;;;4.30;2.72;;;;;;;;;;5036366;28;20095;-66
2022/06/18 00:38:30;;;;;;;4.80;2.70;;;;;;;;;;5034126;28;20028;-67
2022/06/18 00:41:20;;;;;;;3.30;2.63;;;;;;;;;;5042819;28;20061;-65
2022/06/18 00:44:35;;;;;;;5.40;2.92;;;;;;;;;;5039439;28;20107;-63
2022/06/18 00:47:33;;;;;;;3.95;2.45;;;;;;;;;;5040234;28;20391;-66
2022/06/18 00:50:25;;;;;;;4.72;2.47;;;;;;;;;;5039846;28;20036;-66
2022/06/18 00:53:16;;;;;;;5.80;2.83;;;;;;;;;;5018975;28;20026;-66
2022/06/18 00:56:04;;;;;;;3.88;2.63;;;;;;;;;;5028817;28;20037;-68
2022/06/18 00:59:02;;;;;;;4.82;2.67;;;;;;;;;;5034501;28;20041;-67
2022/06/18 01:01:48;;;;;;;5.38;2.72;;;;;;;;;;5046297;28;20048;-68
2022/06/18 01:04:34;;;;;;;3.95;2.88;;;;;;;;;;5037845;28;20043;-67
2022/06/18 01:07:30;;;;;;;4.68;2.70;;;;;;;;;;5037157;28;20035;-67
2022/06/18 01:10:17;;;;;;;4.43;2.70;;;;;;;;;;5023412;28;20021;-66
2022/06/18 01:13:05;;;;;;;5.88;2.60;;;;;;;;;;5047880;28;20461;-68
2022/06/18 01:15:52;;;;;;;3.20;2.58;;;;;;;;;;5035932;28;20485;-67
2022/06/18 01:18:38;;;;;;;3.90;2.80;;;;;;;;;;5045875;28;20143;-67
2022/06/18 01:21:27;;;;;;;3.75;2.50;;;;;;;;;;5049172;28;20056;-60
2022/06/18 01:24:16;;;;;;;4.63;2.55;;;;;;;;;;5033987;28;20018;-66
2022/06/18 01:27:02;;;;;;;3.67;2.55;;;;;;;;;;5034876;28;20025;-65
2022/06/18 01:29:48;;;;;;;4.07;2.83;;;;;;;;;;5033520;28;20033;-68
2022/06/18 01:32:33;;;;;;;5.20;2.83;;;;;;;;;;5030624;28;20025;-66
2022/06/18 01:35:20;;;;;;;4.60;2.70;;;;;;;;;;5036812;28;20037;-67
2022/06/18 01:38:05;;;;;;;3.58;2.60;;;;;;;;;;5029769;28;20028;-66
2022/06/18 01:41:49;;;;;;;3.47;2.30;;;;;;;;;;5028931;28;20136;-74
2022/06/18 01:44:12;;;;;;;4.63;2.83;;;;;;;;;;5027574;28;20028;-67
2022/06/18 01:47:01;;;;;;;5.85;2.70;;;;;;;;;;5040687;28;20030;-69
2022/06/18 01:49:50;;;;;;;2.65;2.40;;;;;;;;;;5034676;28;20259;-68
2022/06/18 01:52:38;;;;;;;3.80;2.50;;;;;;;;;;5019565;28;20044;-68
2022/06/18 01:55:27;;;;;;;4.03;2.63;;;;;;;;;;5041600;28;20037;-68
2022/06/18 01:58:16;;;;;;;3.30;2.35;;;;;;;;;;5036058;28;20036;-67
2022/06/18 02:01:03;;;;;;;3.13;2.35;;;;;;;;;;5032003;28;20045;-75
2022/06/18 02:03:49;;;;;;;5.15;2.75;;;;;;;;;;5043645;28;20029;-74
2022/06/18 02:06:35;;;;;;;4.85;2.85;;;;;;;;;;5045917;28;20016;-75
2022/06/18 02:09:30;;;;;;;4.97;2.55;;;;;;;;;;5035723;28;20485;-73
2022/06/18 02:12:18;;;;;;;3.78;2.40;;;;;;;;;;5038340;28;20021;-74
2022/06/18 02:15:14;;;;;;;4.80;2.50;;;;;;;;;;5031564;28;20041;-74
2022/06/18 02:18:03;;;;;;;3.85;2.47;;;;;;;;;;5040390;28;20021;-66
2022/06/18 02:20:50;;;;;;;6.83;2.40;;;;;;;;;;5033212;28;20495;-60
2022/06/18 02:23:35;;;;;;;5.40;2.70;;;;;;;;;;5026042;28;20021;-64
2022/06/18 02:26:23;;;;;;;5.07;2.80;;;;;;;;;;5049919;28;20087;-60
2022/06/18 02:29:17;;;;;;;4.68;2.72;;;;;;;;;;5044844;28;20025;-60
2022/06/18 02:32:05;;;;;;;4.57;2.65;;;;;;;;;;5045079;28;20106;-59
2022/06/18 02:34:50;;;;;;;2.58;2.30;;;;;;;;;;5026894;28;20044;-74
2022/06/18 02:37:36;;;;;;;5.53;2.42;;;;;;;;;;5033084;28;20423;-67
2022/06/18 02:40:23;;;;;;;3.97;2.92;;;;;;;;;;5048932;28;20468;-68
2022/06/18 02:43:09;;;;;;;4.68;2.30;;;;;;;;;;5028793;28;20021;-67
2022/06/18 02:45:55;;;;;;;5.00;2.45;;;;;;;;;;5028034;28;20021;-68
2022/06/18 02:48:42;;;;;;;3.95;2.35;;;;;;;;;;5032463;28;20392;-68
2022/06/18 02:51:28;;;;;;;4.93;2.53;;;;;;;;;;5044233;28;20022;-68
2022/06/18 02:54:14;;;;;;;4.20;2.40;;;;;;;;;;5024682;28;20034;-63
2022/06/18 02:57:03;;;;;;;3.47;2.58;;;;;;;;;;5036920;28;20017;-68
2022/06/18 02:59:48;;;;;;;3.83;2.47;;;;;;;;;;5034726;28;20076;-67
2022/06/18 03:02:34;;;;;;;3.38;2.60;;;;;;;;;;5030257;28;20186;-67
2022/06/18 03:05:21;;;;;;;5.43;2.35;;;;;;;;;;5038651;28;20392;-67
2022/06/18 03:08:07;;;;;;;3.45;2.38;;;;;;;;;;5038287;28;20035;-66
2022/06/18 03:13:57;;;;;;;4.10;2.58;;;;;;;;;;5037816;28;20112;-69
2022/06/18 03:16:42;;;;;;;2.92;2.25;;;;;;;;;;5048594;28;20022;-68
2022/06/18 03:19:36;;;;;;;5.70;2.60;;;;;;;;;;5036943;28;20037;-68
2022/06/18 03:22:22;;;;;;;3.50;2.47;;;;;;;;;;5049135;28;20033;-68
2022/06/18 03:25:08;;;;;;;6.68;3.10;;;;;;;;;;5047064;28;20483;-69
2022/06/18 03:27:53;;;;;;;4.00;2.63;;;;;;;;;;5046825;28;20423;-69
2022/06/18 03:30:41;;;;;;;3.53;2.63;;;;;;;;;;5043374;28;20086;-70
2022/06/18 03:33:27;;;;;;;3.58;2.60;;;;;;;;;;5032760;28;20318;-69
2022/06/18 03:36:12;;;;;;;3.53;2.60;;;;;;;;;;5044104;28;20032;-70
2022/06/18 03:38:58;;;;;;;5.03;2.80;;;;;;;;;;5032326;28;20112;-69
2022/06/18 03:41:43;;;;;;;4.22;2.90;;;;;;;;;;5040357;28;20037;-67
2022/06/18 03:44:30;;;;;;;4.10;2.58;;;;;;;;;;5039358;28;20033;-69
2022/06/18 03:47:15;;;;;;;3.38;2.55;;;;;;;;;;5045865;28;20029;-67
2022/06/18 03:50:01;;;;;;;4.50;2.40;;;;;;;;;;5037793;28;20019;-69
2022/06/18 03:52:47;;;;;;;4.40;2.80;;;;;;;;;;5034500;28;20519;-68
2022/06/18 03:55:32;;;;;;;3.67;2.72;;;;;;;;;;5039704;28;20454;-68
2022/06/18 03:58:18;;;;;;;7.63;2.75;;;;;;;;;;5036959;28;20053;-68
2022/06/18 04:01:04;;;;;;;4.20;2.38;;;;;;;;;;5046461;28;20087;-68
2022/06/18 04:03:49;;;;;;;5.40;2.95;;;;;;;;;;5034272;28;20030;-68
2022/06/18 04:06:35;;;;;;;4.40;2.92;;;;;;;;;;5036852;28;20017;-67
2022/06/18 04:09:21;;;;;;;4.35;2.45;;;;;;;;;;5035165;28;20444;-69
2022/06/18 04:12:07;;;;;;;4.25;2.50;;;;;;;;;;5035829;28;20021;-69
2022/06/18 04:14:52;;;;;;;3.95;2.70;;;;;;;;;;5034700;28;20037;-69
2022/06/18 04:17:38;;;;;;;5.65;2.30;;;;;;;;;;5038449;28;20033;-69
2022/06/18 04:20:24;;;;;;;6.88;3.30;;;;;;;;;;5038334;28;20311;-69
2022/06/18 04:23:11;;;;;;;4.10;2.67;;;;;;;;;;5050897;28;20071;-68
2022/06/18 04:25:57;;;;;;;3.53;2.50;;;;;;;;;;5040696;28;20022;-65
2022/06/18 04:28:42;;;;;;;3.90;2.65;;;;;;;;;;5037307;28;20045;-64
2022/06/18 04:31:28;;;;;;;5.32;2.58;;;;;;;;;;5030175;28;20026;-66
2022/06/18 04:34:14;;;;;;;4.88;2.47;;;;;;;;;;5052683;28;20475;-68
2022/06/18 04:36:59;;;;;;;5.53;2.72;;;;;;;;;;5040939;28;20091;-66
2022/06/18 04:39:45;;;;;;;3.38;2.67;;;;;;;;;;5033578;28;20049;-66
2022/06/18 04:42:30;;;;;;;3.88;2.55;;;;;;;;;;5023072;28;20025;-77
2022/06/18 04:45:16;;;;;;;3.45;2.60;;;;;;;;;;5048859;28;20025;-67
2022/06/18 04:48:02;;;;;;;4.63;2.80;;;;;;;;;;5031348;28;20096;-65
2022/06/18 04:50:48;;;;;;;4.40;2.55;;;;;;;;;;5033402;28;20030;-68
2022/06/18 04:53:34;;;;;;;4.70;2.78;;;;;;;;;;5028196;28;20028;-68
2022/06/18 04:56:19;;;;;;;4.18;2.80;;;;;;;;;;5034007;28;20033;-67
2022/06/18 04:59:05;;;;;;;4.50;2.50;;;;;;;;;;5042370;28;20076;-66
2022/06/18 05:02:00;;;;;;;3.65;2.47;;;;;;;;;;5020050;28;20032;-62
2022/06/18 05:04:46;;;;;;;5.50;2.88;;;;;;;;;;5039447;28;20099;-61
2022/06/18 05:07:32;;;;;;;3.42;2.88;;;;;;;;;;5037440;28;20412;-61
2022/06/18 05:10:18;;;;;;;3.85;2.50;;;;;;;;;;5045009;28;20033;-61
2022/06/18 05:13:05;;;;;;;5.05;2.67;;;;;;;;;;5041926;28;20039;-61
2022/06/18 05:15:53;;;;;;;4.30;2.58;;;;;;;;;;5036404;28;20033;-61
2022/06/18 05:18:43;;;;;;;4.32;2.58;;;;;;;;;;5033378;28;20112;-63
2022/06/18 05:21:29;;;;;;;6.10;3.03;;;;;;;;;;5038379;28;20096;-75
2022/06/18 05:24:14;;;;;;;5.93;3.20;;;;;;;;;;5015229;28;20072;-68
2022/06/18 05:27:00;;;;;;;4.10;2.78;;;;;;;;;;5020666;28;20021;-70
2022/06/18 05:29:45;;;;;;;3.58;2.53;;;;;;;;;;5031418;28;20028;-69
2022/06/18 05:32:31;;;;;;;4.15;2.50;;;;;;;;;;5033647;28;20020;-69
2022/06/18 05:35:17;;;;;;;4.25;2.53;;;;;;;;;;5035780;28;20029;-68
2022/06/18 05:38:02;;;;;;;3.80;2.90;;;;;;;;;;5041027;28;20224;-69
2022/06/18 05:40:48;;;;;;;6.10;2.83;;;;;;;;;;5042436;28;20404;-69
2022/06/18 05:43:34;;;;;;;7.88;2.60;;;;;;;;;;5035915;28;20017;-68
2022/06/18 05:46:19;;;;;;;3.47;2.80;;;;;;;;;;5023338;28;20022;-67
2022/06/18 05:49:05;;;;;;;3.70;2.88;;;;;;;;;;5046120;28;20432;-68
2022/06/18 05:51:50;;;;;;;5.22;3.33;;;;;;;;;;5039252;28;20021;-68
2022/06/18 05:54:36;;;;;;;4.70;2.80;;;;;;;;;;5035565;28;20176;-67
2022/06/18 05:57:22;;;;;;;3.05;2.30;;;;;;;;;;5038302;28;20025;-63
2022/06/18 06:00:07;;;;;;;3.17;2.60;;;;;;;;;;5037959;28;20049;-69
2022/06/18 06:02:53;;;;;;;5.13;2.90;;;;;;;;;;5049430;28;20055;-69
2022/06/18 06:05:39;;;;;;;5.70;2.95;;;;;;;;;;5042001;28;20022;-68
2022/06/18 06:08:24;;;;;;;4.72;2.67;;;;;;;;;;5039673;28;20028;-69
2022/06/18 06:11:28;;;;;;;5.53;2.97;;;;;;;;;;5044696;28;20049;-69
2022/06/18 06:14:17;;;;;;;4.93;3.22;;;;;;;;;;5033731;28;20119;-68
2022/06/18 06:17:03;;;;;;;9.98;3.88;;;;;;;;;;5017868;28;20033;-62
2022/06/18 06:19:48;;;;;;;3.35;2.60;;;;;;;;;;5033477;28;20029;-68
2022/06/18 06:22:35;;;;;;;4.68;3.00;;;;;;;;;;5025621;28;20530;-67
2022/06/18 06:25:21;;;;;;;3.83;2.78;;;;;;;;;;5037617;28;20053;-67
2022/06/18 06:28:09;;;;;;;3.75;2.95;;;;;;;;;;5040603;28;20017;-66
2022/06/18 06:30:55;;;;;;;5.18;2.88;;;;;;;;;;5036817;28;20021;-67
2022/06/18 06:33:41;;;;;;;5.28;2.78;;;;;;;;;;5029583;28;20086;-78
2022/06/18 06:36:26;;;;;;;3.95;2.47;;;;;;;;;;5031663;28;20034;-62
2022/06/18 06:39:12;;;;;;;6.57;3.90;;;;;;;;;;5043687;28;20021;-62
2022/06/18 06:41:57;;;;;;;6.63;2.47;;;;;;;;;;5051206;28;20036;-61
2022/06/18 06:44:43;;;;;;;5.00;2.80;;;;;;;;;;5037112;28;20036;-61
2022/06/18 06:47:29;;;;;;;6.13;2.63;;;;;;;;;;5033604;28;20026;-62
2022/06/18 06:50:15;;;;;;;5.18;2.80;;;;;;;;;;5038551;28;20069;-62
2022/06/18 06:53:01;;;;;;;4.57;2.97;;;;;;;;;;5034196;28;20021;-63
2022/06/18 06:58:51;;;;;;;6.18;2.85;;;;;;;;;;5027685;28;20037;-61
2022/06/18 07:01:36;;;;;;;5.22;2.58;;;;;;;;;;5041154;28;20029;-61
2022/06/18 07:04:22;;;;;;;4.65;2.58;;;;;;;;;;5033385;28;20490;-60
2022/06/18 07:07:11;;;;;;;6.70;2.70;;;;;;;;;;5021634;28;20233;-61
2022/06/18 07:09:56;;;;;;;5.43;2.38;;;;;;;;;;5043381;28;20036;-67
2022/06/18 07:12:42;;;;;;;4.60;2.90;;;;;;;;;;5037545;28;20095;-77
2022/06/18 07:15:28;;;;;;;6.00;2.70;;;;;;;;;;5035270;28;20052;-67
2022/06/18 07:18:16;;;;;;;5.13;2.50;;;;;;;;;;5033044;28;20029;-69
2022/06/18 07:21:03;;;;;;;4.35;2.70;;;;;;;;;;5039936;28;20032;-67
2022/06/18 07:23:48;;;;;;;6.22;3.40;;;;;;;;;;5040260;28;20109;-67
2022/06/18 07:26:34;;;;;;;4.70;2.50;;;;;;;;;;5037561;28;20097;-68
2022/06/18 07:29:20;;;;;;;4.80;2.50;;;;;;;;;;5036978;28;20025;-67
2022/06/18 07:32:17;;;;;;;4.68;2.50;;;;;;;;;;5038930;28;20547;-60
2022/06/18 07:35:04;;;;;;;5.18;2.45;;;;;;;;;;5036581;28;20090;-60
2022/06/18 07:37:50;;;;;;;7.32;2.80;;;;;;;;;;5024167;28;20392;-62
2022/06/18 07:40:42;;;;;;;4.63;2.33;;;;;;;;;;5032276;28;20087;-61
2022/06/18 07:43:33;;;;;;;5.93;3.10;;;;;;;;;;5042715;28;20465;-59
2022/06/18 07:46:19;;;;;;;3.55;2.95;;;;;;;;;;5035701;28;20081;-61
2022/06/18 07:49:05;;;;;;;4.70;2.70;;;;;;;;;;5028475;28;20381;-62
2022/06/18 07:51:51;;;;;;;5.07;2.30;;;;;;;;;;5037012;28;20068;-69
2022/06/18 07:54:36;;;;;;;6.00;2.28;;;;;;;;;;5043753;28;20029;-68
2022/06/18 07:57:22;;;;;;;4.40;2.17;;;;;;;;;;5049524;28;20385;-67
2022/06/18 08:00:08;;;;;;;7.53;2.85;;;;;;;;;;5034287;28;20060;-68
2022/06/18 08:02:53;;;;;;;6.32;2.92;;;;;;;;;;5037831;28;20033;-70
2022/06/18 08:05:39;;;;;;;4.18;2.50;;;;;;;;;;5042938;28;20024;-62
2022/06/18 08:08:24;;;;;;;3.22;2.35;;;;;;;;;;5036780;28;20025;-65
2022/06/18 08:11:13;;;;;;;2.53;2.03;;;;;;;;;;5030817;28;20451;-64
2022/06/18 08:13:58;;;;;;;2.17;1.85;;;;;;;;;;5032474;28;20033;-65
2022/06/18 08:16:44;;;;;;;4.70;1.88;;;;;;;;;;5037612;28;20386;-64
2022/06/18 08:19:30;;;;;;;4.47;1.90;;;;;;;;;;5037676;28;20045;-63
2022/06/18 08:22:15;;;;;;;5.95;1.90;;;;;;;;;;5044392;28;20392;-64
2022/06/18 08:25:01;;;;;;;6.25;2.00;;;;;;;;;;5043893;28;20016;-78
2022/06/18 08:27:47;;;;;;;3.90;2.42;;;;;;;;;;5035488;28;20025;-65
2022/06/18 08:30:33;;;;;;;5.13;1.88;;;;;;;;;;5043409;28;20075;-65
2022/06/18 08:33:18;;;;;;;4.47;1.90;;;;;;;;;;5036080;28;20023;-63
2022/06/18 08:36:05;;;;;;;3.25;2.00;;;;;;;;;;5024569;28;20038;-65
2022/06/18 08:38:51;;;;;;;3.03;1.80;;;;;;;;;;5047930;28;20029;-66
2022/06/18 08:41:48;;;;;;;3.85;2.20;;;;;;;;;;5043708;28;20112;-65
2022/06/18 08:44:46;;;;;;;5.97;2.22;;;;;;;;;;5022505;28;20076;-67
2022/06/18 08:47:31;;;;;;;3.30;1.83;;;;;;;;;;5045842;28;20022;-69
2022/06/18 08:50:21;;;;;;;3.70;1.80;;;;;;;;;;5041167;28;20345;-67
2022/06/18 08:53:27;;;;;;;5.05;2.20;;;;;;;;;;5039578;28;20021;-69
2022/06/18 08:56:23;;;;;;;5.70;2.30;;;;;;;;;;5047358;28;20110;-69
2022/06/18 08:59:12;;;;;;;3.60;2.40;;;;;;;;;;5034041;28;20133;-68
2022/06/18 09:02:02;;;;;;;2.83;2.38;;;;;;;;;;5036688;28;20064;-77
2022/06/18 09:05:06;;;;;;;3.50;2.25;;;;;;;;;;5036405;28;20041;-69
2022/06/18 09:07:51;;;;;;;4.13;2.10;;;;;;;;;;5039663;28;20032;-68
2022/06/18 09:10:52;;;;;;;2.88;1.60;;;;;;;;;;5029964;28;20064;-69
2022/06/18 09:13:41;;;;;;;2.30;1.48;;;;;;;;;;5034313;28;20037;-68
2022/06/18 09:16:41;;;;;;;2.42;1.67;;;;;;;;;;5027517;28;20052;-69
2022/06/18 09:19:28;;;;;;;4.90;2.00;;;;;;;;;;5045669;28;20026;-69
2022/06/18 09:22:16;;;;;;;3.58;1.70;;;;;;;;;;5051283;28;20075;-68
2022/06/18 09:25:02;;;;;;;;;;;;;;;;;;5033596;28;20026;-68
2022/06/18 09:27:53;;;;;;;2.65;1.50;;;;;;;;;;5039967;28;19915;-69
2022/06/18 09:30:45;;;;;;;2.80;1.77;;;;;;;;;;5033614;28;20021;-68
2022/06/18 09:33:30;;;;;;;2.75;1.23;;;;;;;;;;5028596;28;20116;-68
2022/06/18 09:36:25;;;;;;;1.23;1.13;;;;;;;;;;5044650;28;21134;-67
2022/06/18 09:39:14;;;;;;;2.78;1.52;;;;;;;;;;5029158;28;20177;-67
2022/06/18 09:42:04;;;;;;;2.35;1.55;;;;;;;;;;5033443;28;20025;-63
2022/06/18 09:44:56;;;;;;;2.08;1.88;;;;;;;;;;5049022;28;20044;-65
2022/06/18 09:47:44;;;;;;;5.00;1.40;;;;;;;;;;5039099;28;20464;-63
2022/06/18 09:50:56;;;;;;;5.63;2.10;;;;;;;;;;5036037;28;20269;-64
2022/06/18 09:53:42;;;;;;;1.70;1.60;;;;;;;;;;5041128;28;20228;-62
2022/06/18 09:56:32;;;;;;;2.70;1.90;;;;;;;;;;5034071;28;20108;-70
2022/06/18 09:59:20;;;;;;;2.10;1.55;;;;;;;;;;5041615;28;20053;-64
2022/06/18 10:02:15;;;;;;;5.07;1.65;;;;;;;;;;5028144;28;20418;-62
2022/06/18 10:08:08;;;;;;;2.78;1.42;;;;;;;;;;5046705;28;20369;-64
2022/06/18 10:10:55;;;;;;;3.42;1.40;;;;;;;;;;5037167;28;20029;-65
2022/06/18 10:13:43;;;;;;;2.38;1.50;;;;;;;;;;5032932;28;20366;-64
2022/06/18 10:16:34;;;;;;;2.85;1.35;;;;;;;;;;5036113;28;20092;-62
2022/06/18 10:19:23;;;;;;;3.78;1.70;;;;;;;;;;5042571;28;20408;-79
2022/06/18 10:22:31;;;;;;;3.22;1.70;;;;;;;;;;5043511;28;20036;-79
2022/06/18 10:25:36;;;;;;;7.37;1.93;;;;;;;;;;5035216;28;20056;-77
2022/06/18 10:28:22;;;;;;;4.50;1.60;;;;;;;;;;5021334;28;20021;-77
2022/06/18 10:31:19;;;;;;;5.32;1.60;;;;;;;;;;5035236;28;20431;-79
2022/06/18 10:34:23;;;;;;;3.80;1.42;;;;;;;;;;5019335;28;20030;-67
2022/06/18 10:37:09;;;;;;;4.57;1.58;;;;;;;;;;5032102;28;20476;-69
2022/06/18 10:40:01;;;;;;;5.25;1.73;;;;;;;;;;5038290;28;20033;-68
2022/06/18 10:42:54;;;;;;;3.45;1.58;;;;;;;;;;5032539;28;20052;-68
2022/06/18 10:46:09;;;;;;;2.17;1.50;;;;;;;;;;5028847;28;20039;-68
2022/06/18 10:48:58;;;;;;;5.35;1.80;;;;;;;;;;5024345;28;20044;-68
2022/06/18 10:51:46;;;;;;;4.78;1.60;;;;;;;;;;5034558;28;20029;-70
2022/06/18 10:54:34;;;;;;;2.95;2.00;;;;;;;;;;5031876;28;20504;-69
2022/06/18 10:57:24;;;;;;;5.88;1.80;;;;;;;;;;5047568;28;20045;-69
2022/06/18 11:00:10;;;;;;;4.40;1.88;;;;;;;;;;5035725;28;20120;-70
2022/06/18 11:02:57;;;;;;;4.30;1.55;;;;;;;;;;5033186;28;20028;-69
2022/06/18 11:05:44;;;;;;;5.57;1.88;;;;;;;;;;5032584;28;20063;-67
2022/06/18 11:08:31;;;;;;;3.72;1.73;;;;;;;;;;5042583;28;20028;-67
2022/06/18 11:11:20;;;;;;;5.55;1.98;;;;;;;;;;5031225;28;20078;-70
2022/06/18 11:14:16;;;;;;;4.22;2.00;;;;;;;;;;5024733;28;20073;-78
2022/06/18 11:17:02;;;;;;;6.90;2.03;;;;;;;;;;5034939;28;20052;-79
2022/06/18 11:19:50;;;;;;;3.55;1.58;;;;;;;;;;5047422;28;20032;-77
2022/06/18 11:22:36;;;;;;;1.50;1.40;;;;;;;;;;5028742;28;20480;-77
2022/06/18 11:25:25;;;;;;;4.88;1.80;;;;;;;;;;5029554;28;20030;-77
2022/06/18 11:28:18;;;;;;;7.32;1.70;;;;;;;;;;5045110;28;20021;-78
2022/06/18 11:31:04;;;;;;;6.75;2.17;;;;;;;;;;5041990;28;20037;-64
2022/06/18 11:33:55;;;;;;;6.38;2.20;;;;;;;;;;5035231;28;20049;-63
2022/06/18 11:36:49;;;;;;;5.32;1.90;;;;;;;;;;5037664;28;20038;-65
2022/06/18 11:39:35;;;;;;;5.32;1.90;;;;;;;;;;5029577;28;20117;-65
2022/06/18 11:42:39;;;;;;;7.47;2.00;;;;;;;;;;5022311;28;20029;-65
2022/06/18 11:45:35;;;;;;;5.75;1.80;;;;;;;;;;5030025;28;20055;-65
2022/06/18 11:48:40;;;;;;;7.93;1.70;;;;;;;;;;5035735;28;20184;-69
2022/06/18 11:51:33;;;;;;;5.63;2.05;;;;;;;;;;5032546;28;20078;-68
2022/06/18 11:54:22;;;;;;;10.20;2.65;;;;;;;;;;5041182;28;20120;-68
2022/06/18 11:57:16;;;;;;;11.07;3.15;;;;;;;;;;5042373;28;20029;-68
2022/06/18 12:00:07;;;;;;;3.38;1.77;;;;;;;;;;5038786;28;20088;-69
2022/06/18 12:02:56;;;;;;;10.05;2.97;;;;;;;;;;5039595;28;20040;-69
2022/06/18 12:05:47;;;;;;;9.00;2.83;;;;;;;;;;5028993;28;20021;-67
2022/06/18 12:08:33;;;;;;;7.50;2.22;;;;;;;;;;5041950;28;20025;-69
2022/06/18 12:11:27;;;;;;;10.05;2.90;;;;;;;;;;5036041;28;20017;-69
2022/06/18 12:14:15;;;;;;;7.35;2.67;;;;;;;;;;5038108;28;20590;-69
2022/06/18 12:17:11;;;;;;;8.00;2.67;;;;;;;;;;5046737;28;20113;-69
2022/06/18 12:20:12;;;;;;;14.00;2.60;;;;;;;;;;5035556;28;20025;-68
2022/06/18 12:23:09;;;;;;;14.15;3.65;;;;;;;;;;5029952;28;20030;-63
2022/06/18 12:25:58;;;;;;;9.20;3.43;;;;;;;;;;5023537;28;20457;-64
2022/06/18 12:28:44;;;;;;;;;;;;;;;;;;5044480;28;20112;-63
2022/06/18 12:31:34;;;;;;;14.68;2.95;;;;;;;;;;5034637;28;19917;-63
2022/06/18 12:34:20;;;;;;;12.40;3.47;;;;;;;;;;5030804;28;20083;-64
2022/06/18 12:37:24;;;;;;;12.27;3.30;;;;;;;;;;5047176;28;20488;-63
2022/06/18 12:40:09;;;;;;;12.90;3.33;;;;;;;;;;5040623;28;20067;-63
2022/06/18 12:42:56;;;;;;;13.45;3.40;;;;;;;;;;5035993;28;20044;-63
2022/06/18 12:45:53;;;;;;;10.50;3.30;;;;;;;;;;5033882;28;20017;-64
2022/06/18 12:48:42;;;;;;;15.30;4.05;;;;;;;;;;5039940;28;20133;-63
2022/06/18 12:51:30;;;;;;;13.25;4.18;;;;;;;;;;5033792;28;20018;-63
2022/06/18 12:54:35;;;;;;;20.38;3.60;;;;;;;;;;5038756;28;20044;-65
2022/06/18 12:57:44;;;;;;;22.08;4.32;;;;;;;;;;5026930;28;20448;-64
2022/06/18 13:00:42;;;;;;;13.55;4.30;;;;;;;;;;5038395;28;20052;-64
2022/06/18 13:03:42;;;;;;;13.13;3.33;;;;;;;;;;5032583;28;20025;-76
2022/06/18 13:06:38;;;;;;;14.45;4.18;;;;;;;;;;5040113;28;20373;-76
2022/06/18 13:09:30;;;;;;;14.02;3.97;;;;;;;;;;5034195;28;20025;-77
2022/06/18 13:12:21;;;;;;;10.55;3.20;;;;;;;;;;5036268;28;20365;-76
2022/06/18 13:15:29;;;;;;;12.82;4.13;;;;;;;;;;5036802;28;20087;-77
2022/06/18 13:18:20;;;;;;;14.80;3.95;;;;;;;;;;5037654;28;20043;-68
2022/06/18 13:21:07;;;;;;;11.60;3.42;;;;;;;;;;5042288;28;20475;-69
2022/06/18 13:30:14;;;;;;;11.93;3.70;;;;;;;;;;5035324;28;20025;-68
2022/06/18 13:33:10;;;;;;;9.15;3.72;;;;;;;;;;5035555;28;20032;-68
2022/06/18 13:36:05;;;;;;;10.10;3.50;;;;;;;;;;5030137;28;20026;-67
2022/06/18 13:38:58;;;;;;;9.13;3.20;;;;;;;;;;5034825;28;20017;-76
2022/06/18 13:41:50;;;;;;;9.70;3.30;;;;;;;;;;5034738;28;20110;-64
2022/06/18 13:44:36;;;;;;;14.18;3.50;;;;;;;;;;5035834;28;20025;-64
2022/06/18 13:47:31;;;;;;;13.82;3.38;;;;;;;;;;5035023;28;20033;-64
2022/06/18 13:50:22;;;;;;;8.93;3.30;;;;;;;;;;5024438;28;20032;-63
2022/06/18 13:53:08;;;;;;;11.43;3.33;;;;;;;;;;5039579;28;20029;-64
2022/06/18 13:55:53;;;;;;;11.95;3.78;;;;;;;;;;5031999;28;20120;-77
2022/06/18 13:58:45;;;;;;;11.75;4.10;;;;;;;;;;5036044;28;20033;-69
2022/06/18 14:01:43;;;;;;;9.00;3.20;;;;;;;;;;5024175;28;20076;-69
2022/06/18 14:04:32;;;;;;;15.93;4.45;;;;;;;;;;5033422;28;20029;-69
2022/06/18 14:07:25;;;;;;;12.50;3.33;;;;;;;;;;5037123;28;20480;-69
2022/06/18 14:10:16;;;;;;;13.57;4.70;;;;;;;;;;5043201;28;20068;-69
2022/06/18 14:13:09;;;;;;;9.25;3.45;;;;;;;;;;5032646;28;20029;-69
2022/06/18 14:16:02;;;;;;;11.80;3.75;;;;;;;;;;5022144;28;20365;-63
2022/06/18 14:18:48;;;;;;;9.40;3.22;;;;;;;;;;5038302;28;20025;-68
2022/06/18 14:21:34;;;;;;;10.65;3.22;;;;;;;;;;5042453;28;20036;-68
2022/06/18 14:24:20;;;;;;;12.48;3.47;;;;;;;;;;5040769;28;20108;-68
2022/06/18 14:27:07;;;;;;;13.93;4.80;;;;;;;;;;5043199;28;20074;-68
2022/06/18 14:29:53;;;;;;;9.35;3.75;;;;;;;;;;5024919;28;20036;-68
2022/06/18 14:32:46;;;;;;;11.73;3.65;;;;;;;;;;5031268;28;20494;-62
2022/06/18 14:35:39;;;;;;;11.90;3.35;;;;;;;;;;5046303;28;20079;-69
2022/06/18 14:38:24;;;;;;;7.50;4.03;;;;;;;;;;5038803;28;20017;-69
2022/06/18 14:44:17;;;;;;;15.32;3.92;;;;;;;;;;5031892;28;20064;-69
2022/06/18 14:47:09;;;;;;;9.50;3.67;;;;;;;;;;5033393;28;20029;-68
2022/06/18 14:50:01;;;;;;;17.02;3.97;;;;;;;;;;5045101;28;20045;-69
2022/06/18 14:52:50;;;;;;;14.43;4.22;;;;;;;;;;5031903;28;20036;-70
2022/06/18 14:55:35;;;;;;;12.80;4.07;;;;;;;;;;5038580;28;20047;-70
2022/06/18 14:58:36;;;;;;;12.32;3.40;;;;;;;;;;5033074;28;20388;-68
2022/06/18 15:01:25;;;;;;;15.77;5.00;;;;;;;;;;5031191;28;20088;-69
2022/06/18 15:04:16;;;;;;;12.07;3.67;;;;;;;;;;5028170;28;20017;-68
2022/06/18 15:07:03;;;;;;;16.00;5.07;;;;;;;;;;5046111;28;20064;-68
2022/06/18 15:09:49;;;;;;;15.25;4.45;;;;;;;;;;5022243;28;20469;-67
2022/06/18 15:12:36;;;;;;;13.07;4.80;;;;;;;;;;5046311;28;20063;-66
2022/06/18 15:15:36;;;;;;;16.15;4.75;;;;;;;;;;5039006;28;20044;-66
2022/06/18 15:21:34;;;;;;;23.20;5.10;;;;;;;;;;5038777;28;20032;-66
2022/06/18 15:25:21;;;;;;;14.35;4.18;;;;;;;;;;5028788;28;20103;-66
2022/06/18 15:27:32;;;;;;;14.93;4.22;;;;;;;;;;5035809;28;20031;-67
2022/06/18 15:30:38;;;;;;;21.63;10.55;;;;;;;;;;5034390;28;20032;-68
2022/06/18 15:33:25;;;;;;;22.02;11.57;;;;;;;;;;5042878;28;20115;-68
2022/06/18 15:36:15;;;;;;;37.70;26.88;;;;;;;;;;5043335;28;20033;-69
2022/06/18 15:39:06;;;;;;;32.20;20.77;;;;;;;;;;5040240;28;20473;-67
2022/06/18 15:41:51;;;;;;;22.23;9.35;;;;;;;;;;5049933;28;20048;-68
2022/06/18 15:44:37;;;;;;;20.80;7.72;;;;;;;;;;5015550;28;20029;-68
2022/06/18 15:47:31;;;;;;;20.33;5.32;;;;;;;;;;5050513;28;20037;-68
2022/06/18 15:50:20;;;;;;;19.75;5.82;;;;;;;;;;5040364;28;20029;-63
2022/06/18 15:53:06;;;;;;;;;;;;;;;;;;5034990;28;20101;-65
2022/06/18 15:55:53;;;;;;;31.95;17.17;;;;;;;;;;5035943;28;19917;-64
2022/06/18 15:58:39;;;;;;;19.20;5.68;;;;;;;;;;5024766;28;20553;-64
2022/06/18 16:01:25;;;;;;;24.52;6.35;;;;;;;;;;5046415;28;20025;-64
2022/06/18 16:04:11;;;;;;;16.02;4.68;;;;;;;;;;5037482;28;20009;-68
2022/06/18 16:06:56;;;;;;;25.27;5.68;;;;;;;;;;5037017;28;20032;-68
2022/06/18 16:09:51;;;;;;;22.42;10.18;;;;;;;;;;5039970;28;20056;-69
2022/06/18 16:12:38;;;;;;;22.77;6.43;;;;;;;;;;5033352;28;20035;-68
2022/06/18 16:15:30;;;;;;;19.77;5.63;;;;;;;;;;5041260;28;20431;-68
2022/06/18 16:18:17;;;;;;;24.23;7.88;;;;;;;;;;5044937;28;20013;-69
2022/06/18 16:21:05;;;;;;;20.55;4.75;;;;;;;;;;5042140;28;20476;-70
2022/06/18 16:23:51;;;;;;;17.52;5.65;;;;;;;;;;5032125;28;20029;-70
2022/06/18 16:26:37;;;;;;;26.10;8.15;;;;;;;;;;5040590;28;20037;-69
2022/06/18 16:29:24;;;;;;;18.00;6.93;;;;;;;;;;5026447;28;20075;-68
2022/06/18 16:32:29;;;;;;;19.27;6.10;;;;;;;;;;5027184;28;20104;-69
2022/06/18 16:35:18;;;;;;;21.70;5.97;;;;;;;;;;5042846;28;20170;-67
2022/06/18 16:38:24;;;;;;;20.35;6.55;;;;;;;;;;5045550;28;20020;-68
2022/06/18 16:41:10;;;;;;;21.95;5.55;;;;;;;;;;5020503;28;20091;-68
2022/06/18 16:43:55;;;;;;;20.42;7.30;;;;;;;;;;5043373;28;20017;-75
2022/06/18 16:46:42;;;;;;;29.58;7.60;;;;;;;;;;5043841;28;20376;-76
2022/06/18 16:49:28;;;;;;;19.90;5.78;;;;;;;;;;5043127;28;20084;-74
2022/06/18 16:52:16;;;;;;;19.23;5.88;;;;;;;;;;5038628;28;20087;-77
2022/06/18 16:55:02;;;;;;;18.97;5.70;;;;;;;;;;5037216;28;20041;-78
2022/06/18 16:57:47;;;;;;;22.35;5.25;;;;;;;;;;5038575;28;20271;-77
2022/06/18 17:00:33;;;;;;;21.23;5.72;;;;;;;;;;5038170;28;20075;-60
2022/06/18 17:03:19;;;;;;;21.80;6.15;;;;;;;;;;5040187;28;20025;-69
2022/06/18 17:06:06;;;;;;;18.98;5.60;;;;;;;;;;5031449;28;20499;-69
2022/06/18 17:08:51;;;;;;;18.38;5.30;;;;;;;;;;5022140;28;20049;-70
2022/06/18 17:11:40;;;;;;;18.33;5.55;;;;;;;;;;5044086;28;20033;-66
2022/06/18 17:14:25;;;;;;;20.38;5.93;;;;;;;;;;5039438;28;20063;-67
2022/06/18 17:17:11;;;;;;;22.65;6.22;;;;;;;;;;5022291;28;20044;-68